sensor_id;sensor_type;location;lat;lon;timestamp;P1;durP1;ratioP1;P2;durP2;ratioP2
78181;SDS011;67441;50.116;8.696;2023-04-16T00:00:09;7.90;;;5.07;;
78181;SDS011;67441;50.116;8.696;2023-04-16T00:01:00;7.85;;;5.38;;
78181;SDS011;67441;50.116;8.696;2023-04-16T00:01:50;6.88;;;4.90;;
78181;SDS011;67441;50.116;8.696;2023-04-16T00:02:41;6.97;;;5.28;;
78181;SDS011;67441;50.116;8.696;2023-04-16T00:03:31;6.65;;;4.70;;
78181;SDS011;67441;50.116;8.696;2023-04-16T00:04:22;7.68;;;5.55;;
78181;SDS011;67441;50.116;8.696;2023-04-16T00:05:13;7.25;;;4.90;;
78181;SDS011;67441;50.116;8.696;2023-04-16T00:05:38;9.48;;;5.90;;
78181;SDS011;67441;50.116;8.696;2023-04-16T00:06:29;7.05;;;5.07;;
78181;SDS011;67441;50.116;8.696;2023-04-16T00:06:56;6.88;;;4.85;;
78181;SDS011;67441;50.116;8.696;2023-04-16T00:07:21;8.10;;;5.63;;
78181;SDS011;67441;50.116;8.696;2023-04-16T00:08:12;6.90;;;4.95;;
78181;SDS011;67441;50.116;8.696;2023-04-16T00:09:02;7.60;;;4.90;;
78181;SDS011;67441;50.116;8.696;2023-04-16T00:09:53;7.20;;;5.32;;
78181;SDS011;67441;50.116;8.696;2023-04-16T00:10:44;6.95;;;4.38;;
78181;SDS011;67441;50.116;8.696;2023-04-16T00:11:35;6.78;;;4.88;;
78181;SDS011;67441;50.116;8.696;2023-04-16T00:12:27;7.70;;;5.13;;
78181;SDS011;67441;50.116;8.696;2023-04-16T00:13:18;7.63;;;5.32;;
78181;SDS011;67441;50.116;8.696;2023-04-16T00:14:09;7.57;;;5.07;;
78181;SDS011;67441;50.116;8.696;2023-04-16T00:14:59;7.88;;;5.20;;
78181;SDS011;67441;50.116;8.696;2023-04-16T00:15:50;7.90;;;5.32;;
78181;SDS011;67441;50.116;8.696;2023-04-16T00:16:40;8.45;;;5.45;;
78181;SDS011;67441;50.116;8.696;2023-04-16T00:17:32;7.05;;;4.80;;
78181;SDS011;67441;50.116;8.696;2023-04-16T00:18:22;7.90;;;5.88;;
78181;SDS011;67441;50.116;8.696;2023-04-16T00:18:47;7.78;;;5.30;;
78181;SDS011;67441;50.116;8.696;2023-04-16T00:19:38;9.32;;;5.28;;
78181;SDS011;67441;50.116;8.696;2023-04-16T00:20:29;7.43;;;5.10;;
78181;SDS011;67441;50.116;8.696;2023-04-16T00:21:20;7.43;;;5.38;;
78181;SDS011;67441;50.116;8.696;2023-04-16T00:22:11;7.85;;;5.43;;
78181;SDS011;67441;50.116;8.696;2023-04-16T00:23:01;7.85;;;5.45;;
78181;SDS011;67441;50.116;8.696;2023-04-16T00:23:52;6.68;;;5.05;;
78181;SDS011;67441;50.116;8.696;2023-04-16T00:24:42;7.18;;;4.80;;
78181;SDS011;67441;50.116;8.696;2023-04-16T00:25:33;6.55;;;4.93;;
78181;SDS011;67441;50.116;8.696;2023-04-16T00:26:24;7.65;;;5.18;;
78181;SDS011;67441;50.116;8.696;2023-04-16T00:27:15;7.53;;;5.43;;
78181;SDS011;67441;50.116;8.696;2023-04-16T00:28:06;7.03;;;5.00;;
78181;SDS011;67441;50.116;8.696;2023-04-16T00:28:56;6.95;;;4.90;;
78181;SDS011;67441;50.116;8.696;2023-04-16T00:29:47;8.93;;;5.22;;
78181;SDS011;67441;50.116;8.696;2023-04-16T00:30:38;6.43;;;5.03;;
78181;SDS011;67441;50.116;8.696;2023-04-16T00:31:29;6.72;;;4.72;;
78181;SDS011;67441;50.116;8.696;2023-04-16T00:31:56;7.55;;;5.30;;
78181;SDS011;67441;50.116;8.696;2023-04-16T00:32:47;7.28;;;4.82;;
78181;SDS011;67441;50.116;8.696;2023-04-16T00:33:38;7.43;;;4.70;;
78181;SDS011;67441;50.116;8.696;2023-04-16T00:34:28;7.50;;;5.50;;
78181;SDS011;67441;50.116;8.696;2023-04-16T00:35:19;8.27;;;5.32;;
78181;SDS011;67441;50.116;8.696;2023-04-16T00:36:11;6.95;;;4.90;;
78181;SDS011;67441;50.116;8.696;2023-04-16T00:37:01;6.60;;;4.63;;
78181;SDS011;67441;50.116;8.696;2023-04-16T00:37:52;7.78;;;5.10;;
78181;SDS011;67441;50.116;8.696;2023-04-16T00:38:42;7.43;;;5.13;;
78181;SDS011;67441;50.116;8.696;2023-04-16T00:39:33;7.40;;;4.78;;
78181;SDS011;67441;50.116;8.696;2023-04-16T00:40:28;6.85;;;5.00;;
78181;SDS011;67441;50.116;8.696;2023-04-16T00:40:53;7.22;;;4.75;;
78181;SDS011;67441;50.116;8.696;2023-04-16T00:41:22;8.43;;;5.20;;
78181;SDS011;67441;50.116;8.696;2023-04-16T00:41:47;8.10;;;5.03;;
78181;SDS011;67441;50.116;8.696;2023-04-16T00:42:38;6.72;;;4.40;;
78181;SDS011;67441;50.116;8.696;2023-04-16T00:43:29;9.30;;;6.03;;
78181;SDS011;67441;50.116;8.696;2023-04-16T00:44:20;6.47;;;4.25;;
78181;SDS011;67441;50.116;8.696;2023-04-16T00:45:11;8.63;;;5.20;;
78181;SDS011;67441;50.116;8.696;2023-04-16T00:46:02;7.00;;;4.95;;
78181;SDS011;67441;50.116;8.696;2023-04-16T00:46:29;6.50;;;4.55;;
78181;SDS011;67441;50.116;8.696;2023-04-16T00:47:21;6.68;;;4.65;;
78181;SDS011;67441;50.116;8.696;2023-04-16T00:48:11;7.13;;;5.47;;
78181;SDS011;67441;50.116;8.696;2023-04-16T00:49:03;7.97;;;4.82;;
78181;SDS011;67441;50.116;8.696;2023-04-16T00:49:57;7.88;;;5.22;;
78181;SDS011;67441;50.116;8.696;2023-04-16T00:50:48;8.48;;;5.40;;
78181;SDS011;67441;50.116;8.696;2023-04-16T00:51:40;8.00;;;5.63;;
78181;SDS011;67441;50.116;8.696;2023-04-16T00:52:31;9.68;;;5.00;;
78181;SDS011;67441;50.116;8.696;2023-04-16T00:53:22;7.40;;;4.72;;
78181;SDS011;67441;50.116;8.696;2023-04-16T00:54:13;6.40;;;4.97;;
78181;SDS011;67441;50.116;8.696;2023-04-16T00:55:05;7.07;;;5.00;;
78181;SDS011;67441;50.116;8.696;2023-04-16T00:55:31;6.40;;;4.25;;
78181;SDS011;67441;50.116;8.696;2023-04-16T00:56:23;6.70;;;4.57;;
78181;SDS011;67441;50.116;8.696;2023-04-16T00:56:48;7.32;;;5.05;;
78181;SDS011;67441;50.116;8.696;2023-04-16T00:57:15;8.63;;;5.10;;
78181;SDS011;67441;50.116;8.696;2023-04-16T00:57:45;7.30;;;5.28;;
78181;SDS011;67441;50.116;8.696;2023-04-16T00:58:35;7.85;;;4.53;;
78181;SDS011;67441;50.116;8.696;2023-04-16T00:59:26;7.43;;;4.88;;
78181;SDS011;67441;50.116;8.696;2023-04-16T01:00:18;7.35;;;4.70;;
78181;SDS011;67441;50.116;8.696;2023-04-16T01:00:45;7.68;;;5.07;;
78181;SDS011;67441;50.116;8.696;2023-04-16T01:01:35;8.73;;;5.38;;
78181;SDS011;67441;50.116;8.696;2023-04-16T01:02:26;6.30;;;4.65;;
78181;SDS011;67441;50.116;8.696;2023-04-16T01:03:18;6.85;;;4.85;;
78181;SDS011;67441;50.116;8.696;2023-04-16T01:04:10;8.90;;;4.90;;
78181;SDS011;67441;50.116;8.696;2023-04-16T01:04:35;9.48;;;5.90;;
78181;SDS011;67441;50.116;8.696;2023-04-16T01:05:02;7.30;;;4.93;;
78181;SDS011;67441;50.116;8.696;2023-04-16T01:05:28;6.88;;;5.03;;
78181;SDS011;67441;50.116;8.696;2023-04-16T01:05:54;8.35;;;5.00;;
78181;SDS011;67441;50.116;8.696;2023-04-16T01:06:45;8.00;;;5.10;;
78181;SDS011;67441;50.116;8.696;2023-04-16T01:07:36;7.35;;;4.72;;
78181;SDS011;67441;50.116;8.696;2023-04-16T01:08:26;7.55;;;4.95;;
78181;SDS011;67441;50.116;8.696;2023-04-16T01:09:17;6.18;;;4.32;;
78181;SDS011;67441;50.116;8.696;2023-04-16T01:09:42;6.38;;;4.80;;
78181;SDS011;67441;50.116;8.696;2023-04-16T01:10:33;6.88;;;4.60;;
78181;SDS011;67441;50.116;8.696;2023-04-16T01:11:24;7.85;;;4.68;;
78181;SDS011;67441;50.116;8.696;2023-04-16T01:12:15;7.95;;;4.95;;
78181;SDS011;67441;50.116;8.696;2023-04-16T01:12:40;7.57;;;4.80;;
78181;SDS011;67441;50.116;8.696;2023-04-16T01:13:05;7.40;;;5.20;;
78181;SDS011;67441;50.116;8.696;2023-04-16T01:13:57;7.72;;;5.20;;
78181;SDS011;67441;50.116;8.696;2023-04-16T01:14:48;6.80;;;4.78;;
78181;SDS011;67441;50.116;8.696;2023-04-16T01:15:39;9.05;;;4.57;;
78181;SDS011;67441;50.116;8.696;2023-04-16T01:16:33;7.53;;;5.30;;
78181;SDS011;67441;50.116;8.696;2023-04-16T01:17:24;7.80;;;5.05;;
78181;SDS011;67441;50.116;8.696;2023-04-16T01:18:19;8.73;;;5.03;;
78181;SDS011;67441;50.116;8.696;2023-04-16T01:18:45;6.40;;;4.75;;
78181;SDS011;67441;50.116;8.696;2023-04-16T01:19:11;7.10;;;5.20;;
78181;SDS011;67441;50.116;8.696;2023-04-16T01:20:02;8.10;;;5.15;;
78181;SDS011;67441;50.116;8.696;2023-04-16T01:20:53;8.27;;;5.38;;
78181;SDS011;67441;50.116;8.696;2023-04-16T01:21:44;7.80;;;5.18;;
78181;SDS011;67441;50.116;8.696;2023-04-16T01:22:34;7.53;;;5.40;;
78181;SDS011;67441;50.116;8.696;2023-04-16T01:23:25;7.43;;;5.03;;
78181;SDS011;67441;50.116;8.696;2023-04-16T01:24:16;7.65;;;5.50;;
78181;SDS011;67441;50.116;8.696;2023-04-16T01:25:06;7.57;;;5.45;;
78181;SDS011;67441;50.116;8.696;2023-04-16T01:25:32;8.13;;;5.05;;
78181;SDS011;67441;50.116;8.696;2023-04-16T01:26:22;9.05;;;5.38;;
78181;SDS011;67441;50.116;8.696;2023-04-16T01:27:13;8.15;;;5.32;;
78181;SDS011;67441;50.116;8.696;2023-04-16T01:27:39;6.90;;;5.10;;
78181;SDS011;67441;50.116;8.696;2023-04-16T01:28:08;7.53;;;5.13;;
78181;SDS011;67441;50.116;8.696;2023-04-16T01:28:34;8.13;;;5.38;;
78181;SDS011;67441;50.116;8.696;2023-04-16T01:29:00;9.13;;;4.82;;
78181;SDS011;67441;50.116;8.696;2023-04-16T01:29:26;8.38;;;5.60;;
78181;SDS011;67441;50.116;8.696;2023-04-16T01:29:52;8.43;;;5.40;;
78181;SDS011;67441;50.116;8.696;2023-04-16T01:30:43;7.25;;;5.10;;
78181;SDS011;67441;50.116;8.696;2023-04-16T01:31:34;7.70;;;5.13;;
78181;SDS011;67441;50.116;8.696;2023-04-16T01:32:24;8.25;;;5.28;;
78181;SDS011;67441;50.116;8.696;2023-04-16T01:33:17;7.78;;;5.03;;
78181;SDS011;67441;50.116;8.696;2023-04-16T01:33:42;8.15;;;5.53;;
78181;SDS011;67441;50.116;8.696;2023-04-16T01:34:07;8.32;;;5.57;;
78181;SDS011;67441;50.116;8.696;2023-04-16T01:34:58;9.07;;;5.90;;
78181;SDS011;67441;50.116;8.696;2023-04-16T01:35:49;7.18;;;5.35;;
78181;SDS011;67441;50.116;8.696;2023-04-16T01:36:39;6.90;;;4.95;;
78181;SDS011;67441;50.116;8.696;2023-04-16T01:37:30;8.07;;;5.20;;
78181;SDS011;67441;50.116;8.696;2023-04-16T01:38:21;7.93;;;5.32;;
78181;SDS011;67441;50.116;8.696;2023-04-16T01:39:11;7.85;;;5.63;;
78181;SDS011;67441;50.116;8.696;2023-04-16T01:39:38;7.85;;;5.35;;
78181;SDS011;67441;50.116;8.696;2023-04-16T01:40:03;6.82;;;5.10;;
78181;SDS011;67441;50.116;8.696;2023-04-16T01:40:57;8.05;;;5.43;;
78181;SDS011;67441;50.116;8.696;2023-04-16T01:41:23;6.90;;;5.30;;
78181;SDS011;67441;50.116;8.696;2023-04-16T01:42:14;7.78;;;5.65;;
78181;SDS011;67441;50.116;8.696;2023-04-16T01:43:05;8.52;;;5.45;;
78181;SDS011;67441;50.116;8.696;2023-04-16T01:43:55;9.80;;;5.97;;
78181;SDS011;67441;50.116;8.696;2023-04-16T01:44:47;7.80;;;5.05;;
78181;SDS011;67441;50.116;8.696;2023-04-16T01:45:37;9.23;;;5.80;;
78181;SDS011;67441;50.116;8.696;2023-04-16T01:46:46;7.97;;;5.28;;
78181;SDS011;67441;50.116;8.696;2023-04-16T01:47:37;7.13;;;5.15;;
78181;SDS011;67441;50.116;8.696;2023-04-16T01:48:04;8.05;;;5.50;;
78181;SDS011;67441;50.116;8.696;2023-04-16T01:48:30;8.18;;;5.15;;
78181;SDS011;67441;50.116;8.696;2023-04-16T01:49:21;8.27;;;5.05;;
78181;SDS011;67441;50.116;8.696;2023-04-16T01:50:13;7.30;;;4.85;;
78181;SDS011;67441;50.116;8.696;2023-04-16T01:51:04;8.63;;;5.65;;
78181;SDS011;67441;50.116;8.696;2023-04-16T01:51:56;8.27;;;5.78;;
78181;SDS011;67441;50.116;8.696;2023-04-16T01:52:46;7.88;;;5.03;;
78181;SDS011;67441;50.116;8.696;2023-04-16T01:53:37;8.00;;;5.60;;
78181;SDS011;67441;50.116;8.696;2023-04-16T01:54:28;7.80;;;5.28;;
78181;SDS011;67441;50.116;8.696;2023-04-16T01:55:18;7.32;;;5.63;;
78181;SDS011;67441;50.116;8.696;2023-04-16T01:56:09;8.77;;;5.88;;
78181;SDS011;67441;50.116;8.696;2023-04-16T01:57:00;7.82;;;5.55;;
78181;SDS011;67441;50.116;8.696;2023-04-16T01:57:51;6.90;;;5.32;;
78181;SDS011;67441;50.116;8.696;2023-04-16T01:58:42;8.30;;;5.85;;
78181;SDS011;67441;50.116;8.696;2023-04-16T01:59:32;7.35;;;5.47;;
78181;SDS011;67441;50.116;8.696;2023-04-16T02:00:23;8.43;;;6.03;;
78181;SDS011;67441;50.116;8.696;2023-04-16T02:01:14;8.70;;;5.93;;
78181;SDS011;67441;50.116;8.696;2023-04-16T02:02:07;7.72;;;5.60;;
78181;SDS011;67441;50.116;8.696;2023-04-16T02:02:38;7.93;;;5.10;;
78181;SDS011;67441;50.116;8.696;2023-04-16T02:03:04;6.72;;;4.90;;
78181;SDS011;67441;50.116;8.696;2023-04-16T02:03:55;8.90;;;5.90;;
78181;SDS011;67441;50.116;8.696;2023-04-16T02:04:22;8.65;;;5.28;;
78181;SDS011;67441;50.116;8.696;2023-04-16T02:05:13;8.18;;;5.40;;
78181;SDS011;67441;50.116;8.696;2023-04-16T02:06:03;8.90;;;5.78;;
78181;SDS011;67441;50.116;8.696;2023-04-16T02:06:55;8.45;;;5.15;;
78181;SDS011;67441;50.116;8.696;2023-04-16T02:07:47;7.78;;;5.20;;
78181;SDS011;67441;50.116;8.696;2023-04-16T02:08:38;8.57;;;6.03;;
78181;SDS011;67441;50.116;8.696;2023-04-16T02:09:29;7.40;;;5.43;;
78181;SDS011;67441;50.116;8.696;2023-04-16T02:10:19;7.93;;;5.38;;
78181;SDS011;67441;50.116;8.696;2023-04-16T02:11:11;8.32;;;5.40;;
78181;SDS011;67441;50.116;8.696;2023-04-16T02:12:01;8.25;;;5.55;;
78181;SDS011;67441;50.116;8.696;2023-04-16T02:12:53;8.35;;;5.65;;
78181;SDS011;67441;50.116;8.696;2023-04-16T02:13:43;9.55;;;5.47;;
78181;SDS011;67441;50.116;8.696;2023-04-16T02:14:34;8.15;;;5.40;;
78181;SDS011;67441;50.116;8.696;2023-04-16T02:15:25;8.10;;;5.60;;
78181;SDS011;67441;50.116;8.696;2023-04-16T02:16:16;8.10;;;5.70;;
78181;SDS011;67441;50.116;8.696;2023-04-16T02:17:07;7.93;;;5.53;;
78181;SDS011;67441;50.116;8.696;2023-04-16T02:17:58;10.02;;;5.88;;
78181;SDS011;67441;50.116;8.696;2023-04-16T02:18:48;8.20;;;5.55;;
78181;SDS011;67441;50.116;8.696;2023-04-16T02:19:40;7.47;;;5.45;;
78181;SDS011;67441;50.116;8.696;2023-04-16T02:20:32;8.55;;;5.70;;
78181;SDS011;67441;50.116;8.696;2023-04-16T02:21:24;8.32;;;5.47;;
78181;SDS011;67441;50.116;8.696;2023-04-16T02:22:18;7.68;;;5.65;;
78181;SDS011;67441;50.116;8.696;2023-04-16T02:23:09;7.57;;;5.32;;
78181;SDS011;67441;50.116;8.696;2023-04-16T02:23:35;9.50;;;5.80;;
78181;SDS011;67441;50.116;8.696;2023-04-16T02:24:27;7.50;;;5.53;;
78181;SDS011;67441;50.116;8.696;2023-04-16T02:25:18;7.95;;;5.80;;
78181;SDS011;67441;50.116;8.696;2023-04-16T02:26:09;9.40;;;5.47;;
78181;SDS011;67441;50.116;8.696;2023-04-16T02:26:37;8.27;;;5.88;;
78181;SDS011;67441;50.116;8.696;2023-04-16T02:27:28;8.35;;;5.75;;
78181;SDS011;67441;50.116;8.696;2023-04-16T02:28:18;7.82;;;5.82;;
78181;SDS011;67441;50.116;8.696;2023-04-16T02:29:09;8.02;;;5.38;;
78181;SDS011;67441;50.116;8.696;2023-04-16T02:30:00;8.07;;;5.50;;
78181;SDS011;67441;50.116;8.696;2023-04-16T02:30:26;9.75;;;6.25;;
78181;SDS011;67441;50.116;8.696;2023-04-16T02:31:17;7.45;;;5.43;;
78181;SDS011;67441;50.116;8.696;2023-04-16T02:31:43;8.20;;;5.40;;
78181;SDS011;67441;50.116;8.696;2023-04-16T02:32:09;8.07;;;5.43;;
78181;SDS011;67441;50.116;8.696;2023-04-16T02:32:59;9.13;;;5.97;;
78181;SDS011;67441;50.116;8.696;2023-04-16T02:33:27;8.10;;;5.72;;
78181;SDS011;67441;50.116;8.696;2023-04-16T02:34:18;8.25;;;5.47;;
78181;SDS011;67441;50.116;8.696;2023-04-16T02:35:09;8.43;;;5.15;;
78181;SDS011;67441;50.116;8.696;2023-04-16T02:36:00;8.52;;;5.78;;
78181;SDS011;67441;50.116;8.696;2023-04-16T02:36:25;8.98;;;5.22;;
78181;SDS011;67441;50.116;8.696;2023-04-16T02:37:18;8.48;;;5.80;;
78181;SDS011;67441;50.116;8.696;2023-04-16T02:37:43;8.30;;;5.80;;
78181;SDS011;67441;50.116;8.696;2023-04-16T02:38:37;8.18;;;5.78;;
78181;SDS011;67441;50.116;8.696;2023-04-16T02:39:02;9.68;;;5.63;;
78181;SDS011;67441;50.116;8.696;2023-04-16T02:39:28;6.82;;;5.10;;
78181;SDS011;67441;50.116;8.696;2023-04-16T02:39:54;8.63;;;5.97;;
78181;SDS011;67441;50.116;8.696;2023-04-16T02:40:45;8.75;;;5.80;;
78181;SDS011;67441;50.116;8.696;2023-04-16T02:41:35;8.02;;;5.20;;
78181;SDS011;67441;50.116;8.696;2023-04-16T02:42:26;8.82;;;5.95;;
78181;SDS011;67441;50.116;8.696;2023-04-16T02:43:18;7.80;;;5.53;;
78181;SDS011;67441;50.116;8.696;2023-04-16T02:44:08;8.40;;;5.50;;
78181;SDS011;67441;50.116;8.696;2023-04-16T02:44:59;9.13;;;5.95;;
78181;SDS011;67441;50.116;8.696;2023-04-16T02:45:50;8.30;;;5.82;;
78181;SDS011;67441;50.116;8.696;2023-04-16T02:46:41;8.98;;;5.85;;
78181;SDS011;67441;50.116;8.696;2023-04-16T02:47:31;7.82;;;5.40;;
78181;SDS011;67441;50.116;8.696;2023-04-16T02:48:22;8.43;;;5.88;;
78181;SDS011;67441;50.116;8.696;2023-04-16T02:49:13;8.55;;;6.03;;
78181;SDS011;67441;50.116;8.696;2023-04-16T02:50:03;8.63;;;5.25;;
78181;SDS011;67441;50.116;8.696;2023-04-16T02:50:54;8.35;;;6.05;;
78181;SDS011;67441;50.116;8.696;2023-04-16T02:51:45;8.32;;;5.53;;
78181;SDS011;67441;50.116;8.696;2023-04-16T02:52:35;8.65;;;6.38;;
78181;SDS011;67441;50.116;8.696;2023-04-16T02:53:28;8.00;;;5.93;;
78181;SDS011;67441;50.116;8.696;2023-04-16T02:53:53;8.05;;;5.93;;
78181;SDS011;67441;50.116;8.696;2023-04-16T02:54:44;8.02;;;5.72;;
78181;SDS011;67441;50.116;8.696;2023-04-16T02:55:35;8.55;;;6.10;;
78181;SDS011;67441;50.116;8.696;2023-04-16T02:56:26;9.27;;;6.10;;
78181;SDS011;67441;50.116;8.696;2023-04-16T02:57:16;9.07;;;6.00;;
78181;SDS011;67441;50.116;8.696;2023-04-16T02:58:06;10.25;;;6.18;;
78181;SDS011;67441;50.116;8.696;2023-04-16T02:58:57;8.00;;;5.70;;
78181;SDS011;67441;50.116;8.696;2023-04-16T02:59:48;7.68;;;5.85;;
78181;SDS011;67441;50.116;8.696;2023-04-16T03:00:38;8.43;;;6.00;;
78181;SDS011;67441;50.116;8.696;2023-04-16T03:01:29;9.48;;;6.18;;
78181;SDS011;67441;50.116;8.696;2023-04-16T03:02:19;7.68;;;5.60;;
78181;SDS011;67441;50.116;8.696;2023-04-16T03:03:10;10.13;;;6.03;;
78181;SDS011;67441;50.116;8.696;2023-04-16T03:04:01;8.07;;;6.18;;
78181;SDS011;67441;50.116;8.696;2023-04-16T03:04:54;9.20;;;6.00;;
78181;SDS011;67441;50.116;8.696;2023-04-16T03:05:20;9.93;;;6.80;;
78181;SDS011;67441;50.116;8.696;2023-04-16T03:05:45;7.90;;;5.93;;
78181;SDS011;67441;50.116;8.696;2023-04-16T03:06:36;9.00;;;6.25;;
78181;SDS011;67441;50.116;8.696;2023-04-16T03:07:27;9.25;;;5.68;;
78181;SDS011;67441;50.116;8.696;2023-04-16T03:08:20;8.90;;;5.97;;
78181;SDS011;67441;50.116;8.696;2023-04-16T03:09:11;7.45;;;5.38;;
78181;SDS011;67441;50.116;8.696;2023-04-16T03:10:02;8.23;;;5.47;;
78181;SDS011;67441;50.116;8.696;2023-04-16T03:10:53;9.57;;;6.03;;
78181;SDS011;67441;50.116;8.696;2023-04-16T03:11:44;7.78;;;5.65;;
78181;SDS011;67441;50.116;8.696;2023-04-16T03:12:09;8.38;;;6.07;;
78181;SDS011;67441;50.116;8.696;2023-04-16T03:13:00;6.88;;;5.10;;
78181;SDS011;67441;50.116;8.696;2023-04-16T03:13:51;10.15;;;5.90;;
78181;SDS011;67441;50.116;8.696;2023-04-16T03:14:43;7.95;;;5.82;;
78181;SDS011;67441;50.116;8.696;2023-04-16T03:15:34;8.50;;;5.45;;
78181;SDS011;67441;50.116;8.696;2023-04-16T03:16:25;8.75;;;6.30;;
78181;SDS011;67441;50.116;8.696;2023-04-16T03:17:16;8.95;;;6.13;;
78181;SDS011;67441;50.116;8.696;2023-04-16T03:18:06;9.07;;;6.03;;
78181;SDS011;67441;50.116;8.696;2023-04-16T03:18:57;10.73;;;6.13;;
78181;SDS011;67441;50.116;8.696;2023-04-16T03:19:47;9.48;;;6.68;;
78181;SDS011;67441;50.116;8.696;2023-04-16T03:20:14;9.60;;;6.03;;
78181;SDS011;67441;50.116;8.696;2023-04-16T03:20:41;8.60;;;5.95;;
78181;SDS011;67441;50.116;8.696;2023-04-16T03:21:31;10.25;;;6.05;;
78181;SDS011;67441;50.116;8.696;2023-04-16T03:22:22;9.25;;;6.32;;
78181;SDS011;67441;50.116;8.696;2023-04-16T03:23:14;9.43;;;6.75;;
78181;SDS011;67441;50.116;8.696;2023-04-16T03:24:05;8.98;;;6.18;;
78181;SDS011;67441;50.116;8.696;2023-04-16T03:24:56;9.77;;;6.53;;
78181;SDS011;67441;50.116;8.696;2023-04-16T03:25:47;9.75;;;6.40;;
78181;SDS011;67441;50.116;8.696;2023-04-16T03:26:37;9.48;;;6.78;;
78181;SDS011;67441;50.116;8.696;2023-04-16T03:27:28;9.10;;;6.68;;
78181;SDS011;67441;50.116;8.696;2023-04-16T03:28:19;9.52;;;6.70;;
78181;SDS011;67441;50.116;8.696;2023-04-16T03:29:10;8.90;;;6.13;;
78181;SDS011;67441;50.116;8.696;2023-04-16T03:30:02;9.30;;;6.50;;
78181;SDS011;67441;50.116;8.696;2023-04-16T03:30:28;11.35;;;6.65;;
78181;SDS011;67441;50.116;8.696;2023-04-16T03:31:19;9.80;;;6.20;;
78181;SDS011;67441;50.116;8.696;2023-04-16T03:32:10;10.15;;;6.65;;
78181;SDS011;67441;50.116;8.696;2023-04-16T03:33:02;8.93;;;6.10;;
78181;SDS011;67441;50.116;8.696;2023-04-16T03:33:52;10.02;;;6.95;;
78181;SDS011;67441;50.116;8.696;2023-04-16T03:34:43;9.45;;;6.72;;
78181;SDS011;67441;50.116;8.696;2023-04-16T03:35:34;11.23;;;6.75;;
78181;SDS011;67441;50.116;8.696;2023-04-16T03:36:25;9.32;;;6.40;;
78181;SDS011;67441;50.116;8.696;2023-04-16T03:37:16;7.80;;;6.20;;
78181;SDS011;67441;50.116;8.696;2023-04-16T03:37:41;10.70;;;6.55;;
78181;SDS011;67441;50.116;8.696;2023-04-16T03:38:32;9.07;;;6.70;;
78181;SDS011;67441;50.116;8.696;2023-04-16T03:39:23;8.75;;;6.28;;
78181;SDS011;67441;50.116;8.696;2023-04-16T03:40:13;9.40;;;6.47;;
78181;SDS011;67441;50.116;8.696;2023-04-16T03:41:05;8.30;;;6.22;;
78181;SDS011;67441;50.116;8.696;2023-04-16T03:41:55;9.10;;;6.57;;
78181;SDS011;67441;50.116;8.696;2023-04-16T03:42:46;10.57;;;7.38;;
78181;SDS011;67441;50.116;8.696;2023-04-16T03:43:36;10.63;;;6.68;;
78181;SDS011;67441;50.116;8.696;2023-04-16T03:44:27;9.57;;;6.85;;
78181;SDS011;67441;50.116;8.696;2023-04-16T03:45:18;11.23;;;7.15;;
78181;SDS011;67441;50.116;8.696;2023-04-16T03:46:10;9.93;;;7.20;;
78181;SDS011;67441;50.116;8.696;2023-04-16T03:47:01;10.70;;;7.68;;
78181;SDS011;67441;50.116;8.696;2023-04-16T03:47:52;10.90;;;6.88;;
78181;SDS011;67441;50.116;8.696;2023-04-16T03:48:43;9.38;;;6.82;;
78181;SDS011;67441;50.116;8.696;2023-04-16T03:49:34;9.75;;;6.65;;
78181;SDS011;67441;50.116;8.696;2023-04-16T03:50:25;10.68;;;7.10;;
78181;SDS011;67441;50.116;8.696;2023-04-16T03:51:15;10.48;;;7.32;;
78181;SDS011;67441;50.116;8.696;2023-04-16T03:52:06;12.13;;;8.07;;
78181;SDS011;67441;50.116;8.696;2023-04-16T03:52:56;10.25;;;7.35;;
78181;SDS011;67441;50.116;8.696;2023-04-16T03:53:47;10.70;;;7.30;;
78181;SDS011;67441;50.116;8.696;2023-04-16T03:54:12;10.32;;;7.15;;
78181;SDS011;67441;50.116;8.696;2023-04-16T03:55:03;10.27;;;6.70;;
78181;SDS011;67441;50.116;8.696;2023-04-16T03:55:54;10.93;;;7.07;;
78181;SDS011;67441;50.116;8.696;2023-04-16T03:56:45;9.98;;;7.43;;
78181;SDS011;67441;50.116;8.696;2023-04-16T03:57:35;12.18;;;7.65;;
78181;SDS011;67441;50.116;8.696;2023-04-16T03:58:28;10.48;;;7.25;;
78181;SDS011;67441;50.116;8.696;2023-04-16T03:58:54;11.43;;;6.97;;
78181;SDS011;67441;50.116;8.696;2023-04-16T03:59:44;12.73;;;7.13;;
78181;SDS011;67441;50.116;8.696;2023-04-16T04:00:35;9.85;;;6.88;;
78181;SDS011;67441;50.116;8.696;2023-04-16T04:01:01;12.50;;;7.50;;
78181;SDS011;67441;50.116;8.696;2023-04-16T04:01:51;11.10;;;7.30;;
78181;SDS011;67441;50.116;8.696;2023-04-16T04:02:42;11.00;;;7.78;;
78181;SDS011;67441;50.116;8.696;2023-04-16T04:03:35;10.65;;;7.60;;
78181;SDS011;67441;50.116;8.696;2023-04-16T04:04:01;12.20;;;7.80;;
78181;SDS011;67441;50.116;8.696;2023-04-16T04:04:51;10.90;;;7.22;;
78181;SDS011;67441;50.116;8.696;2023-04-16T04:05:42;10.18;;;6.85;;
78181;SDS011;67441;50.116;8.696;2023-04-16T04:06:33;11.35;;;7.18;;
78181;SDS011;67441;50.116;8.696;2023-04-16T04:07:24;11.05;;;7.30;;
78181;SDS011;67441;50.116;8.696;2023-04-16T04:08:14;12.98;;;7.38;;
78181;SDS011;67441;50.116;8.696;2023-04-16T04:09:05;11.68;;;7.57;;
78181;SDS011;67441;50.116;8.696;2023-04-16T04:09:31;12.13;;;7.72;;
78181;SDS011;67441;50.116;8.696;2023-04-16T04:09:58;11.23;;;7.25;;
78181;SDS011;67441;50.116;8.696;2023-04-16T04:10:48;10.45;;;6.63;;
78181;SDS011;67441;50.116;8.696;2023-04-16T04:11:15;9.90;;;7.03;;
78181;SDS011;67441;50.116;8.696;2023-04-16T04:11:40;11.68;;;7.03;;
78181;SDS011;67441;50.116;8.696;2023-04-16T04:12:07;10.68;;;7.40;;
78181;SDS011;67441;50.116;8.696;2023-04-16T04:12:34;11.50;;;7.25;;
78181;SDS011;67441;50.116;8.696;2023-04-16T04:13:04;10.43;;;7.30;;
78181;SDS011;67441;50.116;8.696;2023-04-16T04:13:30;10.85;;;7.35;;
78181;SDS011;67441;50.116;8.696;2023-04-16T04:14:21;10.80;;;6.97;;
78181;SDS011;67441;50.116;8.696;2023-04-16T04:14:46;8.93;;;6.50;;
78181;SDS011;67441;50.116;8.696;2023-04-16T04:15:37;10.88;;;7.13;;
78181;SDS011;67441;50.116;8.696;2023-04-16T04:16:28;9.93;;;6.85;;
78181;SDS011;67441;50.116;8.696;2023-04-16T04:17:19;11.38;;;7.25;;
78181;SDS011;67441;50.116;8.696;2023-04-16T04:18:10;11.07;;;7.97;;
78181;SDS011;67441;50.116;8.696;2023-04-16T04:19:00;11.18;;;7.50;;
78181;SDS011;67441;50.116;8.696;2023-04-16T04:19:51;10.27;;;7.05;;
78181;SDS011;67441;50.116;8.696;2023-04-16T04:20:43;10.07;;;7.00;;
78181;SDS011;67441;50.116;8.696;2023-04-16T04:21:34;13.05;;;7.93;;
78181;SDS011;67441;50.116;8.696;2023-04-16T04:22:25;10.98;;;7.43;;
78181;SDS011;67441;50.116;8.696;2023-04-16T04:23:16;11.32;;;7.15;;
78181;SDS011;67441;50.116;8.696;2023-04-16T04:24:07;8.75;;;7.10;;
78181;SDS011;67441;50.116;8.696;2023-04-16T04:24:33;9.73;;;7.25;;
78181;SDS011;67441;50.116;8.696;2023-04-16T04:25:23;11.15;;;7.20;;
78181;SDS011;67441;50.116;8.696;2023-04-16T04:26:14;10.40;;;7.15;;
78181;SDS011;67441;50.116;8.696;2023-04-16T04:27:05;10.30;;;6.65;;
78181;SDS011;67441;50.116;8.696;2023-04-16T04:27:31;11.15;;;7.85;;
78181;SDS011;67441;50.116;8.696;2023-04-16T04:28:21;10.23;;;6.90;;
78181;SDS011;67441;50.116;8.696;2023-04-16T04:29:12;10.73;;;6.85;;
78181;SDS011;67441;50.116;8.696;2023-04-16T04:30:03;10.07;;;6.90;;
78181;SDS011;67441;50.116;8.696;2023-04-16T04:30:29;10.07;;;6.55;;
78181;SDS011;67441;50.116;8.696;2023-04-16T04:31:20;10.55;;;6.72;;
78181;SDS011;67441;50.116;8.696;2023-04-16T04:32:11;9.57;;;6.22;;
78181;SDS011;67441;50.116;8.696;2023-04-16T04:33:02;9.73;;;6.65;;
78181;SDS011;67441;50.116;8.696;2023-04-16T04:33:53;8.07;;;6.00;;
78181;SDS011;67441;50.116;8.696;2023-04-16T04:34:43;10.90;;;6.97;;
78181;SDS011;67441;50.116;8.696;2023-04-16T04:35:34;9.68;;;7.07;;